createdAt,value
2022-10-27T00:01:24.887Z,11.07
2022-10-27T00:03:52.582Z,11.04
2022-10-27T00:06:19.322Z,11.14
2022-10-27T00:08:46.172Z,10.86
2022-10-27T00:11:12.942Z,10.57
2022-10-27T00:13:39.915Z,10.58
2022-10-27T00:16:10.829Z,10.56
2022-10-27T00:18:37.857Z,10.63
2022-10-27T00:21:08.102Z,10.96
2022-10-27T00:23:35.755Z,10.56
2022-10-27T00:26:02.830Z,10.46
2022-10-27T00:28:30.444Z,10.70
2022-10-27T00:31:05.963Z,10.77
2022-10-27T00:33:33.572Z,10.48
2022-10-27T00:36:08.374Z,10.56
2022-10-27T00:38:35.763Z,10.67
2022-10-27T00:41:03.001Z,10.80
2022-10-27T00:43:32.945Z,10.87
2022-10-27T00:46:41.345Z,10.77
2022-10-27T00:49:14.123Z,10.75
2022-10-27T00:51:50.515Z,10.77
2022-10-27T00:54:20.093Z,10.79
2022-10-27T00:56:51.053Z,10.80
2022-10-27T00:59:19.752Z,10.66
2022-10-27T01:01:48.717Z,10.42
2022-10-27T01:04:20.461Z,10.00
2022-10-27T01:06:47.330Z,9.86
2022-10-27T01:09:14.573Z,9.71
2022-10-27T01:11:41.425Z,9.68
2022-10-27T01:14:08.286Z,9.57
2022-10-27T01:16:56.488Z,9.60
2022-10-27T01:19:29.062Z,9.83
2022-10-27T01:22:38.633Z,9.93
2022-10-27T01:25:23.901Z,10.00
2022-10-27T01:28:15.623Z,9.84
2022-10-27T01:30:54.359Z,9.87
2022-10-27T01:33:30.695Z,9.97
2022-10-27T01:36:06.037Z,9.82
2022-10-27T01:38:43.374Z,9.86
2022-10-27T01:41:23.598Z,10.01
2022-10-27T01:43:54.961Z,10.04
2022-10-27T01:46:21.903Z,9.64
2022-10-27T01:48:49.359Z,9.59
2022-10-27T01:51:16.226Z,9.90
2022-10-27T01:53:48.702Z,10.10
2022-10-27T01:56:46.364Z,10.27
2022-10-27T01:59:34.799Z,10.28
2022-10-27T02:02:04.590Z,10.31
2022-10-27T02:04:42.072Z,10.33
2022-10-27T02:07:14.778Z,10.37
2022-10-27T02:09:47.138Z,10.42
2022-10-27T02:12:23.189Z,10.50
2022-10-27T02:14:53.415Z,10.33
2022-10-27T02:17:23.525Z,9.51
2022-10-27T02:19:52.880Z,9.62
2022-10-27T02:22:20.841Z,9.76
2022-10-27T02:24:47.747Z,9.76
2022-10-27T02:27:34.764Z,9.63
2022-10-27T02:30:02.651Z,9.57
2022-10-27T02:32:30.511Z,9.74
2022-10-27T02:34:58.408Z,9.79
2022-10-27T02:37:37.929Z,9.68
2022-10-27T02:40:05.345Z,9.66
2022-10-27T02:42:32.106Z,9.70
2022-10-27T02:44:58.946Z,9.69
2022-10-27T02:47:25.830Z,9.43
2022-10-27T02:49:52.551Z,8.88
2022-10-27T02:52:19.554Z,9.15
2022-10-27T02:54:46.425Z,9.18
2022-10-27T02:57:13.178Z,9.41
2022-10-27T02:59:39.949Z,9.44
2022-10-27T03:02:06.788Z,9.63
2022-10-27T03:04:33.591Z,9.72
2022-10-27T03:07:00.391Z,9.57
2022-10-27T03:09:27.234Z,9.48
2022-10-27T03:11:54.110Z,9.32
2022-10-27T03:14:20.939Z,9.28
2022-10-27T03:16:47.864Z,9.09
2022-10-27T03:19:14.611Z,8.94
2022-10-27T03:21:41.382Z,8.59
2022-10-27T03:24:08.210Z,8.06
2022-10-27T03:26:34.949Z,8.18
2022-10-27T03:29:01.786Z,8.48
2022-10-27T03:31:29.039Z,8.56
2022-10-27T03:33:55.797Z,8.44
2022-10-27T03:36:22.746Z,8.39
2022-10-27T03:38:49.615Z,8.65
2022-10-27T03:41:16.437Z,8.86
2022-10-27T03:43:43.244Z,8.95
2022-10-27T03:46:10.928Z,8.95
2022-10-27T03:48:37.998Z,9.00
2022-10-27T03:51:04.863Z,9.16
2022-10-27T03:53:31.624Z,9.16
2022-10-27T03:55:58.411Z,9.23
2022-10-27T03:58:25.223Z,9.19
2022-10-27T04:00:52.068Z,8.82
2022-10-27T04:03:18.904Z,8.58
2022-10-27T04:05:50.249Z,8.58
2022-10-27T04:08:17.024Z,8.51
2022-10-27T04:10:43.853Z,8.49
2022-10-27T04:13:10.724Z,8.36
2022-10-27T04:15:37.552Z,8.42
2022-10-27T04:18:04.667Z,8.14
2022-10-27T04:20:31.635Z,7.77
2022-10-27T04:22:59.927Z,7.89
2022-10-27T04:25:27.025Z,8.03
2022-10-27T04:28:07.649Z,8.36
2022-10-27T04:30:34.983Z,8.65
2022-10-27T04:33:01.884Z,8.82
2022-10-27T04:35:29.358Z,8.92
2022-10-27T04:37:57.036Z,9.03
2022-10-27T04:40:24.279Z,9.19
2022-10-27T04:42:51.903Z,9.30
2022-10-27T04:45:19.107Z,9.30
2022-10-27T04:47:49.031Z,8.89
2022-10-27T04:50:17.333Z,8.76
2022-10-27T04:52:57.562Z,8.92
2022-10-27T04:55:25.801Z,8.85
2022-10-27T04:57:53.273Z,9.01
2022-10-27T05:00:20.904Z,9.26
2022-10-27T05:02:57.478Z,9.43
2022-10-27T05:05:26.182Z,9.46
2022-10-27T05:07:54.992Z,9.61
2022-10-27T05:10:22.192Z,9.74
2022-10-27T05:12:49.224Z,9.84
2022-10-27T05:15:16.433Z,10.03
2022-10-27T05:17:43.326Z,10.15
2022-10-27T05:20:10.616Z,10.32
2022-10-27T05:22:38.453Z,10.44
2022-10-27T05:25:07.299Z,10.57
2022-10-27T05:27:34.072Z,10.73
2022-10-27T05:30:00.801Z,10.97
2022-10-27T05:32:27.613Z,10.86
2022-10-27T05:34:54.371Z,10.77
2022-10-27T05:37:21.338Z,10.78
2022-10-27T05:39:48.188Z,10.97
2022-10-27T05:42:15.066Z,11.17
2022-10-27T05:44:41.914Z,11.50
2022-10-27T05:47:08.879Z,11.53
2022-10-27T05:49:35.672Z,11.78
2022-10-27T05:52:02.390Z,11.79
2022-10-27T05:54:29.225Z,11.87
2022-10-27T05:56:55.932Z,11.77
2022-10-27T05:59:22.638Z,11.89
2022-10-27T06:01:49.529Z,11.91
2022-10-27T06:04:16.451Z,11.83
2022-10-27T06:06:43.256Z,11.97
2022-10-27T06:09:10.137Z,11.94
2022-10-27T06:11:36.907Z,12.14
2022-10-27T06:14:03.706Z,12.16
2022-10-27T06:16:30.499Z,12.28
2022-10-27T06:18:57.350Z,12.49
2022-10-27T06:21:24.149Z,12.36
2022-10-27T06:23:51.264Z,12.48
2022-10-27T06:26:18.303Z,12.25
2022-10-27T06:28:45.073Z,12.32
2022-10-27T06:31:11.924Z,11.96
2022-10-27T06:33:38.646Z,12.25
2022-10-27T06:36:05.641Z,12.29
2022-10-27T06:38:32.448Z,12.10
2022-10-27T06:40:59.224Z,12.01
2022-10-27T06:43:25.971Z,12.12
2022-10-27T06:45:53.356Z,12.33
2022-10-27T06:48:20.137Z,12.59
2022-10-27T06:50:46.948Z,12.82
2022-10-27T06:53:13.972Z,12.88
2022-10-27T06:55:40.727Z,13.03
2022-10-27T06:58:07.437Z,12.92
2022-10-27T07:00:34.325Z,13.06
2022-10-27T07:03:06.448Z,13.29
2022-10-27T07:05:33.228Z,13.53
2022-10-27T07:08:00.138Z,13.54
2022-10-27T07:10:26.985Z,13.43
2022-10-27T07:13:01.922Z,13.35
2022-10-27T07:15:31.172Z,13.31
2022-10-27T07:18:01.034Z,13.39
2022-10-27T07:20:30.431Z,13.66
2022-10-27T07:22:59.934Z,13.56
2022-10-27T07:25:28.409Z,13.49
2022-10-27T07:27:55.815Z,13.54
2022-10-27T07:30:25.410Z,13.62
2022-10-27T07:32:52.178Z,13.82
2022-10-27T07:35:19.024Z,13.94
2022-10-27T07:37:47.053Z,14.20
2022-10-27T07:40:16.350Z,14.31
2022-10-27T07:42:47.929Z,14.47
2022-10-27T07:45:16.512Z,14.43
2022-10-27T07:47:48.928Z,14.04
2022-10-27T07:50:17.798Z,14.32
2022-10-27T07:52:46.894Z,14.47
2022-10-27T07:55:15.559Z,14.38
2022-10-27T07:57:43.768Z,14.32
2022-10-27T08:00:17.004Z,14.65
2022-10-27T08:02:44.680Z,14.91
2022-10-27T08:05:11.789Z,14.94
2022-10-27T08:07:39.180Z,14.81
2022-10-27T08:10:06.256Z,14.96
2022-10-27T08:12:33.184Z,14.79
2022-10-27T08:14:59.919Z,14.63
2022-10-27T08:17:26.809Z,14.88
2022-10-27T08:19:53.524Z,14.95
2022-10-27T08:22:20.347Z,14.91
2022-10-27T08:24:47.159Z,14.77
2022-10-27T08:27:13.876Z,14.89
2022-10-27T08:29:40.647Z,14.97
2022-10-27T08:32:07.407Z,15.27
2022-10-27T08:34:34.141Z,15.34
2022-10-27T08:37:00.888Z,15.65
2022-10-27T08:39:27.748Z,15.34
2022-10-27T08:42:38.791Z,15.75
2022-10-27T08:45:11.099Z,15.72
2022-10-27T08:47:38.067Z,15.83
2022-10-27T08:50:09.776Z,15.66
2022-10-27T08:52:47.875Z,15.61
2022-10-27T08:55:14.669Z,15.74
2022-10-27T08:57:53.254Z,15.55
2022-10-27T09:00:20.278Z,15.54
2022-10-27T09:02:56.151Z,15.85
2022-10-27T09:05:41.022Z,15.97
2022-10-27T09:08:20.119Z,16.12
2022-10-27T09:11:16.830Z,16.35
2022-10-27T09:14:11.455Z,16.29
2022-10-27T09:16:47.926Z,16.36
2022-10-27T09:19:30.276Z,16.59
2022-10-27T09:21:57.736Z,16.32
2022-10-27T09:24:28.460Z,16.33
2022-10-27T09:26:58.813Z,16.61
2022-10-27T09:29:25.615Z,16.46
2022-10-27T09:32:03.249Z,16.34
2022-10-27T09:34:39.803Z,16.31
2022-10-27T09:37:14.372Z,16.51
2022-10-27T09:39:46.941Z,16.89
2022-10-27T09:42:14.266Z,16.78
2022-10-27T09:44:51.898Z,16.95
2022-10-27T09:47:20.312Z,16.96
2022-10-27T09:49:47.781Z,17.17
2022-10-27T09:52:42.929Z,17.66
2022-10-27T09:55:10.695Z,17.91
2022-10-27T09:57:40.804Z,17.75
2022-10-27T10:00:09.574Z,17.85
2022-10-27T10:02:45.708Z,17.83
2022-10-27T10:05:23.134Z,17.55
2022-10-27T10:07:50.937Z,17.56
2022-10-27T10:10:28.712Z,17.52
2022-10-27T10:13:02.679Z,17.84
2022-10-27T10:15:33.213Z,18.03
2022-10-27T10:18:01.935Z,18.41
2022-10-27T10:23:27.455Z,19.35
2022-10-27T10:25:57.800Z,19.04
2022-10-27T10:29:05.718Z,18.97
2022-10-27T10:31:32.658Z,19.57
2022-10-27T10:34:05.480Z,18.83
2022-10-27T10:36:38.016Z,19.07
2022-10-27T10:39:24.763Z,18.34
2022-10-27T10:42:24.028Z,18.52
2022-10-27T10:45:10.342Z,18.42
2022-10-27T10:47:37.928Z,18.86
2022-10-27T10:50:12.596Z,18.69
2022-10-27T10:52:40.209Z,18.67
2022-10-27T10:55:17.133Z,19.23
2022-10-27T10:57:45.689Z,19.77
2022-10-27T11:00:16.928Z,19.74
2022-10-27T11:02:56.694Z,19.61
2022-10-27T11:05:31.197Z,19.12
2022-10-27T11:07:58.767Z,18.77
2022-10-27T11:10:30.856Z,18.69
2022-10-27T11:13:24.004Z,18.10
2022-10-27T11:16:03.447Z,17.69
2022-10-27T11:18:42.227Z,17.84
2022-10-27T11:21:31.831Z,17.94
2022-10-27T11:24:27.901Z,17.62
2022-10-27T11:26:59.102Z,17.83
2022-10-27T11:29:32.199Z,17.87
2022-10-27T11:32:14.095Z,17.75
2022-10-27T11:34:51.803Z,17.76
2022-10-27T11:37:28.957Z,17.93
2022-10-27T11:40:01.501Z,18.03
2022-10-27T11:42:36.640Z,18.34
2022-10-27T11:45:25.121Z,18.14
2022-10-27T11:48:00.123Z,17.88
2022-10-27T11:50:56.756Z,17.66
2022-10-27T11:53:23.758Z,17.61
2022-10-27T11:56:24.449Z,17.67
2022-10-27T11:58:54.294Z,17.41
2022-10-27T12:01:39.598Z,17.14
2022-10-27T12:07:30.501Z,16.60
2022-10-27T12:16:17.451Z,16.85
2022-10-27T12:18:44.171Z,17.01
2022-10-27T12:21:20.512Z,16.98
2022-10-27T12:24:11.692Z,17.09
2022-10-27T12:26:41.343Z,17.04
2022-10-27T12:29:09.618Z,16.85
2022-10-27T12:31:44.468Z,17.04
2022-10-27T12:34:15.307Z,17.05
2022-10-27T12:37:09.483Z,17.03
2022-10-27T12:40:09.602Z,17.03
2022-10-27T12:43:15.376Z,17.18
2022-10-27T12:45:44.914Z,17.29
2022-10-27T12:48:55.977Z,17.23
2022-10-27T12:51:28.337Z,17.12
2022-10-27T12:54:25.881Z,17.22
2022-10-27T12:57:22.369Z,17.21
2022-10-27T13:00:07.885Z,17.19
2022-10-27T13:02:46.242Z,17.10
2022-10-27T13:05:13.079Z,17.17
2022-10-27T13:07:57.812Z,17.15
2022-10-27T13:10:31.130Z,17.40
2022-10-27T13:13:17.464Z,17.33
2022-10-27T13:16:03.170Z,16.92
2022-10-27T13:18:32.533Z,16.83
2022-10-27T13:21:13.192Z,16.72
2022-10-27T13:24:16.847Z,16.78
2022-10-27T13:27:09.217Z,16.67
2022-10-27T13:29:47.982Z,16.68
2022-10-27T13:32:20.787Z,16.80
2022-10-27T13:35:13.435Z,16.72
2022-10-27T13:37:55.829Z,16.80
2022-10-27T13:40:22.762Z,16.68
2022-10-27T13:42:57.128Z,16.55
2022-10-27T13:45:26.982Z,16.44
2022-10-27T13:48:09.029Z,16.40
2022-10-27T13:50:38.027Z,16.30
2022-10-27T13:53:16.805Z,16.36
2022-10-27T13:55:48.160Z,16.28
2022-10-27T13:58:21.091Z,16.18
2022-10-27T14:01:14.810Z,16.14
2022-10-27T14:03:44.747Z,16.05
2022-10-27T14:06:14.761Z,15.89
2022-10-27T14:08:44.257Z,15.89
2022-10-27T14:11:18.478Z,15.95
2022-10-27T14:13:49.401Z,15.71
2022-10-27T14:16:23.937Z,15.61
2022-10-27T14:19:14.826Z,15.61
2022-10-27T14:21:47.614Z,15.46
2022-10-27T14:24:48.447Z,15.39
2022-10-27T14:27:18.126Z,15.29
2022-10-27T14:29:45.627Z,15.32
2022-10-27T14:32:21.704Z,15.08
2022-10-27T14:34:49.855Z,14.99
2022-10-27T14:37:35.639Z,14.79
2022-10-27T14:40:02.993Z,14.76
2022-10-27T14:42:33.002Z,14.59
2022-10-27T14:45:03.432Z,14.51
2022-10-27T14:47:32.551Z,14.52
2022-10-27T14:50:06.456Z,14.34
2022-10-27T14:52:45.887Z,14.40
2022-10-27T14:55:39.953Z,14.35
2022-10-27T14:58:20.175Z,14.24
2022-10-27T15:00:51.043Z,14.26
2022-10-27T15:03:17.843Z,14.13
2022-10-27T15:05:48.384Z,14.02
2022-10-27T15:08:21.567Z,14.01
2022-10-27T15:10:50.808Z,13.95
2022-10-27T15:13:20.443Z,13.85
2022-10-27T15:15:48.994Z,13.75
2022-10-27T15:18:27.872Z,13.69
2022-10-27T15:20:55.949Z,13.57
2022-10-27T15:23:23.273Z,13.50
2022-10-27T15:25:56.863Z,13.49
2022-10-27T15:28:29.721Z,13.45
2022-10-27T15:30:56.844Z,13.31
2022-10-27T15:33:28.179Z,13.34
2022-10-27T15:35:58.170Z,13.33
2022-10-27T15:38:27.605Z,13.22
2022-10-27T15:41:06.510Z,13.19
2022-10-27T15:43:33.565Z,13.26
2022-10-27T15:46:22.226Z,13.26
2022-10-27T15:49:11.122Z,13.04
2022-10-27T15:51:53.286Z,13.18
2022-10-27T15:54:34.946Z,13.29
2022-10-27T15:57:05.763Z,13.25
2022-10-27T15:59:33.962Z,13.23
2022-10-27T16:02:22.112Z,13.04
2022-10-27T16:04:50.107Z,13.18
2022-10-27T16:07:16.983Z,13.11
2022-10-27T16:09:47.883Z,12.96
2022-10-27T16:12:30.275Z,13.04
2022-10-27T16:15:00.230Z,13.03
2022-10-27T16:17:49.962Z,13.01
2022-10-27T16:20:26.966Z,12.91
2022-10-27T16:22:54.685Z,12.99
2022-10-27T16:25:28.705Z,12.82
2022-10-27T16:27:55.551Z,12.59
2022-10-27T16:30:23.595Z,12.40
2022-10-27T16:33:04.330Z,12.36
2022-10-27T16:35:31.269Z,12.43
2022-10-27T16:37:58.761Z,12.04
2022-10-27T16:40:25.662Z,11.98
2022-10-27T16:42:55.404Z,12.07
2022-10-27T16:45:22.615Z,12.17
2022-10-27T16:47:50.782Z,12.25
2022-10-27T16:50:22.630Z,12.27
2022-10-27T16:52:56.421Z,12.18
2022-10-27T16:55:23.704Z,12.12
2022-10-27T16:57:50.629Z,12.08
2022-10-27T17:00:17.667Z,12.10
2022-10-27T17:02:44.477Z,12.18
2022-10-27T17:05:11.236Z,12.19
2022-10-27T17:07:47.014Z,12.26
2022-10-27T17:10:16.667Z,12.34
2022-10-27T17:12:43.844Z,12.34
2022-10-27T17:15:13.663Z,12.30
2022-10-27T17:17:40.340Z,12.28
2022-10-27T17:20:07.731Z,12.13
2022-10-27T17:22:35.062Z,12.15
2022-10-27T17:25:02.039Z,12.26
2022-10-27T17:27:28.805Z,12.34
2022-10-27T17:29:56.040Z,12.40
2022-10-27T17:32:22.712Z,12.29
2022-10-27T17:34:49.483Z,12.39
2022-10-27T17:37:16.275Z,12.46
2022-10-27T17:39:43.168Z,12.50
2022-10-27T17:42:09.947Z,12.47
2022-10-27T17:44:36.629Z,12.14
2022-10-27T17:47:03.390Z,12.12
2022-10-27T17:49:30.266Z,11.99
2022-10-27T17:51:57.070Z,11.97
2022-10-27T17:54:23.781Z,11.95
2022-10-27T17:56:50.647Z,11.80
2022-10-27T18:11:25.821Z,11.32
2022-10-27T18:13:58.299Z,11.53
2022-10-27T18:16:30.326Z,11.45
2022-10-27T18:18:59.645Z,11.39
2022-10-27T18:21:28.441Z,11.22
2022-10-27T18:23:57.904Z,11.19
2022-10-27T18:26:26.128Z,11.19
2022-10-27T18:28:52.904Z,10.90
2022-10-27T18:31:25.376Z,10.75
2022-10-27T18:33:54.123Z,10.83
2022-10-27T18:36:23.305Z,10.87
2022-10-27T18:38:54.292Z,10.89
2022-10-27T18:41:21.957Z,10.90
2022-10-27T18:43:51.833Z,10.86
2022-10-27T18:46:20.011Z,10.87
2022-10-27T18:48:51.460Z,10.85
2022-10-27T18:51:18.376Z,10.91
2022-10-27T18:53:46.427Z,10.89
2022-10-27T18:56:18.473Z,10.86
2022-10-27T18:58:45.184Z,10.77
2022-10-27T19:01:14.520Z,10.72
2022-10-27T19:03:42.509Z,10.77
2022-10-27T19:06:12.067Z,10.71
2022-10-27T19:08:38.929Z,10.69
2022-10-27T19:11:08.414Z,10.75
2022-10-27T19:13:35.669Z,10.77
2022-10-27T19:16:03.815Z,10.54
2022-10-27T19:18:31.100Z,10.37
2022-10-27T19:21:02.894Z,10.36
2022-10-27T19:23:30.437Z,10.29
2022-10-27T19:26:15.290Z,10.19
2022-10-27T19:28:43.458Z,10.19
2022-10-27T19:31:16.114Z,10.25
2022-10-27T19:33:44.907Z,10.27
2022-10-27T19:36:14.554Z,10.25
2022-10-27T19:38:41.553Z,10.17
2022-10-27T19:41:16.532Z,10.19
2022-10-27T19:43:47.059Z,10.14
2022-10-27T19:46:19.113Z,10.19
2022-10-27T19:48:53.751Z,10.12
2022-10-27T19:51:23.559Z,10.08
2022-10-27T19:53:51.114Z,9.99
2022-10-27T19:56:18.476Z,10.06
2022-10-27T19:58:50.303Z,10.05
2022-10-27T20:01:22.774Z,10.07
2022-10-27T20:03:49.706Z,10.14
2022-10-27T20:06:17.316Z,9.97
2022-10-27T20:08:45.465Z,10.03
2022-10-27T20:11:13.529Z,10.01
2022-10-27T20:13:40.987Z,9.94
2022-10-27T20:16:09.395Z,9.93
2022-10-27T20:18:36.205Z,9.92
2022-10-27T20:21:03.051Z,9.89
2022-10-27T20:23:30.161Z,9.94
2022-10-27T20:26:24.344Z,9.92
2022-10-27T20:28:48.577Z,9.93
2022-10-27T20:31:15.274Z,9.93
2022-10-27T20:33:41.976Z,9.96
2022-10-27T20:36:11.146Z,9.96
2022-10-27T20:38:39.117Z,9.88
2022-10-27T20:41:07.498Z,9.83
2022-10-27T20:43:35.336Z,9.82
2022-10-27T20:46:03.814Z,9.72
2022-10-27T20:48:30.902Z,9.64
2022-10-27T20:51:03.551Z,9.50
2022-10-27T20:53:32.549Z,9.56
2022-10-27T20:55:59.377Z,9.62
2022-10-27T20:58:26.852Z,9.59
2022-10-27T21:00:54.025Z,9.48
2022-10-27T21:03:21.174Z,9.46
2022-10-27T21:05:47.990Z,9.57
2022-10-27T21:08:14.728Z,9.62
2022-10-27T21:10:41.522Z,9.64
2022-10-27T21:13:12.726Z,9.55
2022-10-27T21:15:40.481Z,9.57
2022-10-27T21:18:09.267Z,9.42
2022-10-27T21:20:37.595Z,9.29
2022-10-27T21:23:04.929Z,9.24
2022-10-27T21:25:31.654Z,9.13
2022-10-27T21:27:58.593Z,9.05
2022-10-27T21:30:26.059Z,9.06
2022-10-27T21:32:54.975Z,9.16
2022-10-27T21:35:23.523Z,9.10
2022-10-27T21:37:50.462Z,9.04
2022-10-27T21:40:17.286Z,9.21
2022-10-27T21:42:44.127Z,9.15
2022-10-27T21:45:12.002Z,9.03
2022-10-27T21:47:39.804Z,8.98
2022-10-27T21:50:09.939Z,9.02
2022-10-27T21:52:37.567Z,9.03
2022-10-27T21:55:05.624Z,8.96
2022-10-27T21:57:32.587Z,8.94
2022-10-27T21:59:59.311Z,9.03
2022-10-27T22:02:26.050Z,9.07
2022-10-27T22:04:52.932Z,8.99
2022-10-27T22:07:19.644Z,9.10
2022-10-27T22:09:46.396Z,9.04
2022-10-27T22:12:13.167Z,8.95
2022-10-27T22:14:40.014Z,8.97
2022-10-27T22:17:06.848Z,8.85
2022-10-27T22:19:33.659Z,8.84
2022-10-27T22:22:00.607Z,8.80
2022-10-27T22:24:27.408Z,8.90
2022-10-27T22:26:54.162Z,8.85
2022-10-27T22:29:20.881Z,8.77
2022-10-27T22:31:47.596Z,8.70
2022-10-27T22:34:14.398Z,8.63
2022-10-27T22:36:41.147Z,8.64
2022-10-27T22:39:08.008Z,8.59
2022-10-27T22:41:35.764Z,8.52
2022-10-27T22:44:02.504Z,8.51
2022-10-27T22:46:31.518Z,8.48
2022-10-27T22:48:58.374Z,8.49
2022-10-27T22:51:28.005Z,8.49
2022-10-27T22:53:56.575Z,8.54
2022-10-27T22:56:29.003Z,8.47
2022-10-27T22:58:58.555Z,8.56
2022-10-27T23:01:28.700Z,8.46
2022-10-27T23:03:57.847Z,8.30
2022-10-27T23:06:27.145Z,8.20
2022-10-27T23:08:59.937Z,8.24
2022-10-27T23:11:30.373Z,8.23
2022-10-27T23:13:57.083Z,8.18
2022-10-27T23:16:24.033Z,8.19
2022-10-27T23:18:50.742Z,8.27
2022-10-27T23:21:19.977Z,8.35
2022-10-27T23:23:46.835Z,8.44
2022-10-27T23:26:18.410Z,8.51
2022-10-27T23:28:48.876Z,8.49
2022-10-27T23:31:15.596Z,8.34
2022-10-27T23:33:42.382Z,8.28
2022-10-27T23:36:10.551Z,8.23
2022-10-27T23:38:37.520Z,8.29
2022-10-27T23:41:04.667Z,8.18
2022-10-27T23:43:31.463Z,8.04
2022-10-27T23:45:59.880Z,8.14
2022-10-27T23:48:26.622Z,8.17
2022-10-27T23:50:53.445Z,8.11
2022-10-27T23:53:20.150Z,8.02
2022-10-27T23:55:53.083Z,8.08
2022-10-27T23:58:19.992Z,8.08
